Main page
METAR-TAF:

METAR-TAF

Airports :

Florence Airport

Florence, Italy

latitude: 43-48N, longitude: 011-12E, elevation: 40 m

Current weather observation

The report was made 34 minutes ago, at 15:20 UTC
Wind 8 kt from the North/Northeast, varying between North/Northwest and East/Northeast
Temperature 18°C
Humidity 39%
Pressure 1012 hPa
Visibility: 9000 m

METAR: LIRQ 281520Z AUTO 03008KT 340V070 9000 BKN032/// 18/04 Q1012

Time: 16:54 (15:54 UTC)

Forecast

The report was made 4 hours and 54 minutes ago, at 11:00 UTC
Forecast valid from 28 at 12 UTC to 29 at 12 UTC
Wind 5 kt from variable directions
Visibility 10 km or more
Scattered clouds at a height of 3000 ft

TAF: LIRQ 281100Z 2812/2912 VRB05KT 9999 SCT030

Weather observations and forecasts of more than 4000 airports (METAR and TAF reports).

The available stations are represented by yellow and red dots on the map.

Hover mouse over dot to see the name of the station.

Then click to see weather observations and forecasts.

To change the map : click on the green buttons with a black cross to zoom in, on the green button with a dash to zoom out, or on the green arrows for adjacent maps.


METAR-TAF: